createdAt,value
2019-03-16T00:02:24.905Z,99982.55
2019-03-16T00:04:51.231Z,99979.19
2019-03-16T00:07:17.340Z,99974.38
2019-03-16T00:09:43.583Z,99978.89
2019-03-16T00:12:09.671Z,99979.84
2019-03-16T00:14:35.792Z,99980.04
2019-03-16T00:17:02.054Z,99975.73
2019-03-16T00:19:28.411Z,99989.41
2019-03-16T00:21:54.743Z,99992.62
2019-03-16T00:24:20.854Z,99995.94
2019-03-16T00:26:47.202Z,100001.28
2019-03-16T00:29:13.604Z,100005.61
2019-03-16T00:31:39.867Z,100010.56
2019-03-16T00:34:06.176Z,100012.12
2019-03-16T00:36:32.327Z,100016.65
2019-03-16T00:38:58.567Z,100011.55
2019-03-16T00:41:24.899Z,100021.06
2019-03-16T00:43:51.307Z,100030.55
2019-03-16T00:46:17.600Z,100035.73
2019-03-16T00:48:44.009Z,100047.83
2019-03-16T00:51:10.150Z,100041.48
2019-03-16T00:53:36.645Z,100042.86
2019-03-16T00:56:03.203Z,100046.09
2019-03-16T00:58:29.419Z,100046.00
2019-03-16T01:00:55.531Z,100049.41
2019-03-16T01:03:21.777Z,100046.81
2019-03-16T01:05:47.955Z,100050.16
2019-03-16T01:08:14.169Z,100041.55
2019-03-16T01:10:40.348Z,100034.48
2019-03-16T01:13:06.713Z,100047.94
2019-03-16T01:15:33.024Z,100045.02
2019-03-16T01:17:59.208Z,100054.08
2019-03-16T01:20:25.608Z,100062.41
2019-03-16T01:22:51.841Z,100043.16
2019-03-16T01:25:18.055Z,100048.95
2019-03-16T01:27:44.422Z,100049.32
2019-03-16T01:30:15.127Z,100050.02
2019-03-16T01:32:41.632Z,100058.02
2019-03-16T01:35:08.057Z,100057.23
2019-03-16T01:37:34.163Z,100058.30
2019-03-16T01:40:00.385Z,100052.46
2019-03-16T01:42:26.643Z,100050.80
2019-03-16T01:44:52.875Z,100052.55
2019-03-16T01:47:19.029Z,100054.77
2019-03-16T01:49:45.199Z,100064.20
2019-03-16T01:52:11.293Z,100055.20
2019-03-16T01:54:37.534Z,100057.06
2019-03-16T01:57:03.663Z,100064.77
2019-03-16T01:59:29.817Z,100062.91
2019-03-16T02:01:55.914Z,100073.08
2019-03-16T02:04:22.253Z,100064.47
2019-03-16T02:06:48.413Z,100066.88
2019-03-16T02:09:14.659Z,100067.18
2019-03-16T02:11:40.918Z,100071.37
2019-03-16T02:14:07.221Z,100069.28
2019-03-16T02:16:33.638Z,100064.20
2019-03-16T02:19:00.842Z,100061.77
2019-03-16T02:21:27.037Z,100062.83
2019-03-16T02:23:53.142Z,100069.89
2019-03-16T02:26:19.319Z,100058.01
2019-03-16T02:28:45.440Z,100066.02
2019-03-16T02:31:11.544Z,100059.66
2019-03-16T02:33:37.695Z,100053.77
2019-03-16T02:36:03.910Z,100061.53
2019-03-16T02:38:30.215Z,100063.09
2019-03-16T02:40:56.486Z,100071.40
2019-03-16T02:43:22.603Z,100078.71
2019-03-16T02:45:48.861Z,100082.50
2019-03-16T02:48:14.958Z,100082.17
2019-03-16T02:50:41.087Z,100072.75
2019-03-16T02:53:07.217Z,100088.34
2019-03-16T02:55:33.417Z,100097.02
2019-03-16T02:57:59.590Z,100100.44
2019-03-16T03:00:25.768Z,100095.87
2019-03-16T03:02:51.952Z,100087.17
2019-03-16T03:05:18.048Z,100095.35
2019-03-16T03:07:44.168Z,100098.36
2019-03-16T03:10:14.266Z,100097.73
2019-03-16T03:12:40.591Z,100097.73
2019-03-16T03:15:07.806Z,100102.94
2019-03-16T03:17:34.123Z,100104.14
2019-03-16T03:20:00.482Z,100114.50
2019-03-16T03:22:26.600Z,100104.05
2019-03-16T03:24:52.694Z,100114.23
2019-03-16T03:27:18.979Z,100109.92
2019-03-16T03:29:45.090Z,100119.50
2019-03-16T03:32:11.300Z,100111.64
2019-03-16T03:34:38.527Z,100118.65
2019-03-16T03:37:04.647Z,100122.08
2019-03-16T03:39:30.766Z,100119.58
2019-03-16T03:41:57.001Z,100116.73
2019-03-16T03:44:23.097Z,100120.03
2019-03-16T03:46:49.290Z,100113.53
2019-03-16T03:49:15.399Z,100108.75
2019-03-16T03:51:41.712Z,100111.73
2019-03-16T03:54:07.904Z,100116.91
2019-03-16T03:56:34.048Z,100113.62
2019-03-16T03:59:00.235Z,100105.17
2019-03-16T04:01:26.460Z,100104.66
2019-03-16T04:03:52.773Z,100095.53
2019-03-16T04:06:18.988Z,100106.28
2019-03-16T04:08:45.215Z,100104.86
2019-03-16T04:11:11.405Z,100100.53
2019-03-16T04:13:37.664Z,100099.48
2019-03-16T04:16:03.944Z,100107.58
2019-03-16T04:18:30.278Z,100110.52
2019-03-16T04:20:56.412Z,100114.83
2019-03-16T04:23:22.716Z,100124.85
2019-03-16T04:25:48.822Z,100116.94
2019-03-16T04:28:14.929Z,100112.36
2019-03-16T04:30:41.167Z,100116.45
2019-03-16T04:33:07.381Z,100115.16
2019-03-16T04:35:36.092Z,100124.41
2019-03-16T04:38:02.309Z,100129.13
2019-03-16T04:40:28.424Z,100133.73
2019-03-16T04:42:54.548Z,100114.89
2019-03-16T04:45:20.772Z,100121.99
2019-03-16T04:47:47.143Z,100120.61
2019-03-16T04:50:13.631Z,100120.30
2019-03-16T04:52:39.836Z,100115.28
2019-03-16T04:55:08.833Z,100108.75
2019-03-16T04:57:35.002Z,100121.08
2019-03-16T05:00:02.199Z,100119.45
2019-03-16T05:02:28.452Z,100113.91
2019-03-16T05:04:54.585Z,100117.12
2019-03-16T05:07:20.815Z,100118.91
2019-03-16T05:09:46.973Z,100128.77
2019-03-16T05:12:13.184Z,100133.40
2019-03-16T05:14:39.291Z,100134.98
2019-03-16T05:17:05.481Z,100139.80
2019-03-16T05:19:31.602Z,100135.34
2019-03-16T05:21:58.817Z,100128.52
2019-03-16T05:24:25.032Z,100126.68
2019-03-16T05:26:51.207Z,100131.85
2019-03-16T05:29:17.981Z,100128.00
2019-03-16T05:31:44.325Z,100131.42
2019-03-16T05:34:10.563Z,100126.02
2019-03-16T05:36:36.689Z,100131.00
2019-03-16T05:39:05.136Z,100126.45
2019-03-16T05:41:31.215Z,100122.62
2019-03-16T05:43:57.443Z,100121.59
2019-03-16T05:46:23.648Z,100113.27
2019-03-16T05:48:49.833Z,100108.91
2019-03-16T05:51:16.124Z,100121.63
2019-03-16T05:53:42.273Z,100127.29
2019-03-16T05:56:08.454Z,100128.13
2019-03-16T05:58:34.668Z,100132.66
2019-03-16T06:01:01.574Z,100132.80
2019-03-16T06:03:27.921Z,100127.98
2019-03-16T06:05:54.022Z,100124.14
2019-03-16T06:08:20.273Z,100127.17
2019-03-16T06:10:46.495Z,100120.50
2019-03-16T06:13:12.835Z,100121.38
2019-03-16T06:15:38.999Z,100125.35
2019-03-16T06:18:06.467Z,100125.16
2019-03-16T06:20:32.597Z,100123.75
2019-03-16T06:22:58.732Z,100121.20
2019-03-16T06:25:24.916Z,100120.94
2019-03-16T06:27:51.035Z,100117.00
2019-03-16T06:30:20.582Z,100119.04
2019-03-16T06:32:45.284Z,100118.61
2019-03-16T06:35:24.057Z,100116.56
2019-03-16T06:37:39.763Z,100118.59
2019-03-16T06:40:07.698Z,100122.22
2019-03-16T06:42:33.927Z,100126.10
2019-03-16T06:45:00.054Z,100124.45
2019-03-16T06:47:26.186Z,100123.31
2019-03-16T06:49:52.513Z,100119.44
2019-03-16T06:52:18.689Z,100125.79
2019-03-16T06:54:44.846Z,100127.14
2019-03-16T06:57:11.140Z,100120.28
2019-03-16T06:59:37.236Z,100122.47
2019-03-16T07:02:03.658Z,100117.63
2019-03-16T07:04:29.842Z,100103.16
2019-03-16T07:06:55.970Z,100112.66
2019-03-16T07:09:22.336Z,100108.20
2019-03-16T07:11:48.579Z,100101.30
2019-03-16T07:14:14.926Z,100090.80
2019-03-16T07:16:41.261Z,100081.00
2019-03-16T07:19:07.351Z,100072.52
2019-03-16T07:21:33.636Z,100070.53
2019-03-16T07:23:59.837Z,100063.79
2019-03-16T07:26:26.036Z,100077.25
2019-03-16T07:28:52.253Z,100083.70
2019-03-16T07:31:19.599Z,100080.17
2019-03-16T07:33:45.807Z,100067.31
2019-03-16T07:36:12.139Z,100065.02
2019-03-16T07:38:38.374Z,100061.14
2019-03-16T07:41:04.841Z,100048.23
2019-03-16T07:43:31.225Z,100051.55
2019-03-16T07:45:57.560Z,100041.39
2019-03-16T07:48:23.718Z,100050.95
2019-03-16T07:50:49.976Z,100045.79
2019-03-16T07:53:16.300Z,100046.87
2019-03-16T07:55:42.494Z,100039.96
2019-03-16T07:58:08.624Z,100038.95
2019-03-16T08:00:34.906Z,100039.09
2019-03-16T08:03:01.219Z,100057.58
2019-03-16T08:05:28.515Z,100040.87
2019-03-16T08:07:55.020Z,100039.99
2019-03-16T08:10:21.241Z,100026.65
2019-03-16T08:12:47.567Z,100030.94
2019-03-16T08:15:13.865Z,100033.53
2019-03-16T08:17:40.034Z,100041.41
2019-03-16T08:20:07.784Z,100037.15
2019-03-16T08:22:33.913Z,100041.81
2019-03-16T08:25:00.150Z,100044.78
2019-03-16T08:27:26.258Z,100030.64
2019-03-16T08:29:52.400Z,100025.99
2019-03-16T08:32:18.742Z,100026.52
2019-03-16T08:34:45.030Z,100013.23
2019-03-16T08:37:11.374Z,100006.03
2019-03-16T08:39:39.054Z,99991.56
2019-03-16T08:42:05.159Z,99999.80
2019-03-16T08:44:31.434Z,99989.56
2019-03-16T08:46:57.674Z,99985.77
2019-03-16T08:49:23.775Z,99987.64
2019-03-16T08:51:50.229Z,99981.19
2019-03-16T08:54:16.507Z,99976.55
2019-03-16T08:56:42.599Z,99968.93
2019-03-16T08:59:08.780Z,99965.50
2019-03-16T09:01:34.941Z,99960.52
2019-03-16T09:04:01.253Z,99952.79
2019-03-16T09:06:27.578Z,99949.75
2019-03-16T09:08:54.005Z,99946.33
2019-03-16T09:11:20.248Z,99945.61
2019-03-16T09:13:46.368Z,99944.25
2019-03-16T09:16:12.686Z,99943.53
2019-03-16T09:18:38.920Z,99944.89
2019-03-16T09:21:05.106Z,99942.84
2019-03-16T09:23:31.388Z,99932.28
2019-03-16T09:25:57.595Z,99929.45
2019-03-16T09:28:24.955Z,99925.34
2019-03-16T09:30:51.299Z,99916.89
2019-03-16T09:33:17.700Z,99921.48
2019-03-16T09:35:44.032Z,99921.22
2019-03-16T09:38:10.171Z,99923.23
2019-03-16T09:40:36.449Z,99912.77
2019-03-16T09:43:02.649Z,99897.50
2019-03-16T09:45:28.923Z,99907.22
2019-03-16T09:47:55.085Z,99898.71
2019-03-16T09:50:21.320Z,99902.87
2019-03-16T09:52:47.524Z,99897.58
2019-03-16T09:55:13.758Z,99896.50
2019-03-16T09:57:40.031Z,99889.13
2019-03-16T10:00:10.590Z,99895.47
2019-03-16T10:02:36.905Z,99887.58
2019-03-16T10:05:04.279Z,99892.57
2019-03-16T10:07:30.605Z,99885.29
2019-03-16T10:09:56.784Z,99877.84
2019-03-16T10:12:23.228Z,99875.12
2019-03-16T10:14:49.613Z,99860.77
2019-03-16T10:17:15.835Z,99858.37
2019-03-16T10:19:42.975Z,99859.95
2019-03-16T10:22:09.413Z,99861.92
2019-03-16T10:24:35.749Z,99850.63
2019-03-16T10:27:02.058Z,99859.78
2019-03-16T10:29:28.406Z,99844.34
2019-03-16T10:31:54.702Z,99854.00
2019-03-16T10:34:21.021Z,99846.95
2019-03-16T10:36:47.409Z,99845.30
2019-03-16T10:39:13.623Z,99860.94
2019-03-16T10:41:39.881Z,99837.58
2019-03-16T10:44:06.126Z,99855.86
2019-03-16T10:46:32.265Z,99854.17
2019-03-16T10:48:58.499Z,99849.41
2019-03-16T10:51:27.546Z,99848.93
2019-03-16T10:53:53.054Z,99861.53
2019-03-16T10:56:19.261Z,99854.13
2019-03-16T10:58:56.072Z,99836.75
2019-03-16T11:01:14.030Z,99851.88
2019-03-16T11:03:40.180Z,99855.27
2019-03-16T11:06:06.477Z,99830.12
2019-03-16T11:08:32.893Z,99835.28
2019-03-16T11:10:59.020Z,99840.87
2019-03-16T11:13:25.348Z,99830.84
2019-03-16T11:15:51.625Z,99852.14
2019-03-16T11:18:17.837Z,99839.06
2019-03-16T11:20:44.268Z,99825.28
2019-03-16T11:23:10.736Z,99820.24
2019-03-16T11:25:36.994Z,99822.84
2019-03-16T11:28:03.363Z,99822.53
2019-03-16T11:30:29.608Z,99821.27
2019-03-16T11:32:55.930Z,99818.74
2019-03-16T11:35:22.197Z,99819.14
2019-03-16T11:37:49.591Z,99824.53
2019-03-16T11:40:17.132Z,99821.42
2019-03-16T11:42:45.258Z,99823.04
2019-03-16T11:45:11.647Z,99829.19
2019-03-16T11:47:38.038Z,99825.68
2019-03-16T11:50:07.095Z,99830.84
2019-03-16T11:52:33.350Z,99817.02
2019-03-16T11:54:59.567Z,99835.22
2019-03-16T11:57:26.842Z,99827.42
2019-03-16T11:59:53.090Z,99820.52
2019-03-16T12:02:19.496Z,99823.63
2019-03-16T12:04:45.720Z,99805.09
2019-03-16T12:07:11.943Z,99806.47
2019-03-16T12:09:38.053Z,99807.73
2019-03-16T12:12:04.432Z,99819.80
2019-03-16T12:14:30.592Z,99810.44
2019-03-16T12:16:56.862Z,99821.72
2019-03-16T12:19:23.213Z,99797.86
2019-03-16T12:21:49.585Z,99809.71
2019-03-16T12:24:15.689Z,99808.70
2019-03-16T12:26:41.858Z,99793.16
2019-03-16T12:29:08.128Z,99800.10
2019-03-16T12:31:34.237Z,99792.43
2019-03-16T12:34:00.533Z,99788.09
2019-03-16T12:36:26.851Z,99782.89
2019-03-16T12:38:53.001Z,99776.02
2019-03-16T12:41:19.267Z,99783.42
2019-03-16T12:43:45.537Z,99769.56
2019-03-16T12:46:12.017Z,99776.94
2019-03-16T12:48:38.385Z,99789.22
2019-03-16T12:51:04.600Z,99770.16
2019-03-16T12:53:30.732Z,99763.70
2019-03-16T12:55:56.849Z,99751.93
2019-03-16T12:58:22.990Z,99739.47
2019-03-16T13:00:49.375Z,99739.88
2019-03-16T13:03:15.739Z,99746.84
2019-03-16T13:05:41.991Z,99747.70
2019-03-16T13:08:08.218Z,99760.78
2019-03-16T13:10:34.540Z,99753.87
2019-03-16T13:13:00.797Z,99761.66
2019-03-16T13:15:27.046Z,99755.09
2019-03-16T13:17:53.402Z,99750.72
2019-03-16T13:20:19.701Z,99729.80
2019-03-16T13:22:46.980Z,99731.51
2019-03-16T13:25:13.265Z,99727.29
2019-03-16T13:27:39.518Z,99735.07
2019-03-16T13:30:09.141Z,99732.06
2019-03-16T13:32:35.282Z,99736.69
2019-03-16T13:35:01.829Z,99725.09
2019-03-16T13:37:28.101Z,99734.64
2019-03-16T13:39:54.373Z,99743.25
2019-03-16T13:42:20.588Z,99756.27
2019-03-16T13:44:46.961Z,99745.05
2019-03-16T13:47:13.148Z,99739.64
2019-03-16T13:49:39.503Z,99744.93
2019-03-16T13:52:06.187Z,99745.27
2019-03-16T13:54:32.717Z,99728.91
2019-03-16T13:56:59.064Z,99725.81
2019-03-16T13:59:25.418Z,99737.12
2019-03-16T14:01:51.765Z,99724.22
2019-03-16T14:04:17.934Z,99724.59
2019-03-16T14:06:45.323Z,99751.91
2019-03-16T14:09:11.671Z,99719.48
2019-03-16T14:11:37.859Z,99717.22
2019-03-16T14:14:04.325Z,99731.54
2019-03-16T14:16:30.431Z,99710.77
2019-03-16T14:18:56.977Z,99697.34
2019-03-16T14:21:23.297Z,99713.81
2019-03-16T14:23:49.615Z,99729.31
2019-03-16T14:26:15.885Z,99731.51
2019-03-16T14:28:42.081Z,99745.83
2019-03-16T14:31:08.447Z,99723.20
2019-03-16T14:33:34.562Z,99732.66
2019-03-16T14:36:01.192Z,99729.54
2019-03-16T14:38:27.724Z,99731.33
2019-03-16T14:40:54.374Z,99715.22
2019-03-16T14:43:20.703Z,99729.05
2019-03-16T14:45:49.009Z,99721.23
2019-03-16T14:48:15.390Z,99719.13
2019-03-16T14:50:41.874Z,99681.86
2019-03-16T14:53:08.162Z,99693.42
2019-03-16T14:55:34.399Z,99706.46
2019-03-16T14:58:00.592Z,99706.95
2019-03-16T15:00:37.749Z,99709.98
2019-03-16T15:02:55.202Z,99706.52
2019-03-16T15:05:22.601Z,99701.41
2019-03-16T15:07:50.129Z,99691.91
2019-03-16T15:10:17.022Z,99698.38
2019-03-16T15:12:43.387Z,99700.51
2019-03-16T15:15:11.549Z,99701.38
2019-03-16T15:17:38.112Z,99701.87
2019-03-16T15:20:07.183Z,99692.81
2019-03-16T15:22:34.586Z,99694.60
2019-03-16T15:25:01.180Z,99689.34
2019-03-16T15:27:27.613Z,99683.70
2019-03-16T15:29:53.948Z,99683.78
2019-03-16T15:32:20.108Z,99672.17
2019-03-16T15:34:46.341Z,99677.44
2019-03-16T15:37:12.515Z,99677.44
2019-03-16T15:39:38.863Z,99678.25
2019-03-16T15:42:05.157Z,99670.09
2019-03-16T15:44:31.428Z,99683.08
2019-03-16T15:46:57.733Z,99664.49
2019-03-16T15:49:24.073Z,99665.28
2019-03-16T15:51:50.334Z,99668.38
2019-03-16T15:54:16.702Z,99670.47
2019-03-16T15:56:42.939Z,99675.70
2019-03-16T15:59:09.109Z,99649.20
2019-03-16T16:01:35.518Z,99656.56
2019-03-16T16:04:01.897Z,99650.50
2019-03-16T16:06:28.235Z,99668.30
2019-03-16T16:08:54.464Z,99661.33
2019-03-16T16:11:20.787Z,99651.35
2019-03-16T16:13:47.101Z,99649.48
2019-03-16T16:16:13.447Z,99633.91
2019-03-16T16:18:39.760Z,99658.37
2019-03-16T16:21:06.065Z,99654.89
2019-03-16T16:23:32.327Z,99647.08
2019-03-16T16:25:58.732Z,99648.81
2019-03-16T16:28:24.996Z,99643.66
2019-03-16T16:30:51.385Z,99642.77
2019-03-16T16:33:18.880Z,99636.69
2019-03-16T16:35:45.196Z,99642.35
2019-03-16T16:38:11.544Z,99629.73
2019-03-16T16:40:37.888Z,99642.67
2019-03-16T16:43:04.246Z,99648.75
2019-03-16T16:45:30.423Z,99637.92
2019-03-16T16:47:56.771Z,99618.44
2019-03-16T16:50:24.083Z,99614.01
2019-03-16T16:52:52.137Z,99623.50
2019-03-16T16:55:18.476Z,99627.81
2019-03-16T16:57:44.920Z,99617.35
2019-03-16T17:00:19.751Z,99627.81
2019-03-16T17:02:46.118Z,99620.00
2019-03-16T17:05:13.602Z,99616.48
2019-03-16T17:07:39.893Z,99619.57
2019-03-16T17:10:12.413Z,99626.10
2019-03-16T17:12:38.770Z,99604.36
2019-03-16T17:15:08.093Z,99618.27
2019-03-16T17:17:35.664Z,99614.27
2019-03-16T17:20:06.166Z,99617.31
2019-03-16T17:22:32.554Z,99626.95
2019-03-16T17:24:58.861Z,99617.38
2019-03-16T17:27:26.029Z,99610.42
2019-03-16T17:29:52.411Z,99607.86
2019-03-16T17:32:18.799Z,99608.28
2019-03-16T17:34:44.984Z,99594.84
2019-03-16T17:37:11.305Z,99601.69
2019-03-16T17:39:37.625Z,99600.39
2019-03-16T17:42:04.156Z,99589.11
2019-03-16T17:44:30.482Z,99580.95
2019-03-16T17:46:56.634Z,99593.03
2019-03-16T17:49:22.808Z,99587.40
2019-03-16T17:51:49.077Z,99599.17
2019-03-16T17:54:15.494Z,99608.28
2019-03-16T17:56:41.806Z,99584.42
2019-03-16T17:59:08.129Z,99597.42
2019-03-16T18:01:34.398Z,99587.92
2019-03-16T18:04:00.746Z,99578.35
2019-03-16T18:06:28.176Z,99584.02
2019-03-16T18:08:54.491Z,99589.59
2019-03-16T18:11:20.706Z,99583.50
2019-03-16T18:13:47.041Z,99586.16
2019-03-16T18:16:13.404Z,99593.97
2019-03-16T18:18:39.585Z,99589.54
2019-03-16T18:21:05.845Z,99583.64
2019-03-16T18:23:32.202Z,99587.00
2019-03-16T18:25:58.693Z,99587.16
2019-03-16T18:28:25.108Z,99590.17
2019-03-16T18:30:54.330Z,99583.58
2019-03-16T18:35:54.627Z,99590.69
2019-03-16T18:38:21.021Z,99583.66
2019-03-16T18:40:47.269Z,99588.06
2019-03-16T18:43:13.487Z,99594.08
2019-03-16T18:45:39.751Z,99585.88
2019-03-16T18:48:06.066Z,99595.83
2019-03-16T18:50:32.540Z,99579.30
2019-03-16T18:52:59.035Z,99591.39
2019-03-16T18:55:25.161Z,99593.67
2019-03-16T18:57:51.499Z,99572.78
2019-03-16T19:00:18.241Z,99586.27
2019-03-16T19:02:44.685Z,99589.78
2019-03-16T19:05:11.182Z,99587.98
2019-03-16T19:07:37.579Z,99573.27
2019-03-16T19:10:09.542Z,99596.68
2019-03-16T19:12:35.978Z,99566.37
2019-03-16T19:15:04.018Z,99565.31
2019-03-16T19:17:30.311Z,99567.17
2019-03-16T19:19:56.531Z,99584.96
2019-03-16T19:22:22.889Z,99574.96
2019-03-16T19:24:49.187Z,99561.88
2019-03-16T19:27:18.782Z,99558.93
2019-03-16T19:29:43.704Z,99576.58
2019-03-16T19:32:10.052Z,99562.38
2019-03-16T19:34:36.263Z,99566.19
2019-03-16T19:37:02.718Z,99566.17
2019-03-16T19:39:30.994Z,99552.67
2019-03-16T19:41:57.288Z,99568.02
2019-03-16T19:44:23.477Z,99561.89
2019-03-16T19:46:49.814Z,99553.99
2019-03-16T19:49:16.048Z,99565.33
2019-03-16T19:51:42.288Z,99555.75
2019-03-16T19:54:08.641Z,99548.88
2019-03-16T19:56:34.793Z,99533.69
2019-03-16T19:59:01.199Z,99536.39
2019-03-16T20:01:27.486Z,99536.29
2019-03-16T20:03:53.810Z,99534.63
2019-03-16T20:06:25.583Z,99522.77
2019-03-16T20:08:48.247Z,99527.16
2019-03-16T20:11:14.426Z,99524.08
2019-03-16T20:13:40.859Z,99537.48
2019-03-16T20:16:07.100Z,99531.44
2019-03-16T20:18:33.344Z,99526.16
2019-03-16T20:20:59.577Z,99533.54
2019-03-16T20:23:25.854Z,99521.73
2019-03-16T20:25:52.109Z,99513.02
2019-03-16T20:28:18.309Z,99510.55
2019-03-16T20:30:44.544Z,99514.00
2019-03-16T20:33:10.669Z,99501.01
2019-03-16T20:35:36.969Z,99487.57
2019-03-16T20:38:03.405Z,99484.48
2019-03-16T20:40:29.530Z,99487.96
2019-03-16T20:42:55.749Z,99487.05
2019-03-16T20:45:22.395Z,99482.69
2019-03-16T20:47:48.489Z,99487.91
2019-03-16T20:50:18.731Z,99486.18
2019-03-16T20:52:45.070Z,99476.66
2019-03-16T20:55:11.506Z,99478.77
2019-03-16T20:57:37.738Z,99470.07
2019-03-16T21:00:19.592Z,99473.13
2019-03-16T21:02:45.912Z,99457.09
2019-03-16T21:05:12.679Z,99458.38
2019-03-16T21:07:39.028Z,99471.46
2019-03-16T21:10:08.473Z,99457.97
2019-03-16T21:12:34.674Z,99459.30
2019-03-16T21:15:01.148Z,99453.66
2019-03-16T21:17:27.450Z,99447.05
2019-03-16T21:19:53.659Z,99448.81
2019-03-16T21:22:20.007Z,99433.63
2019-03-16T21:24:46.213Z,99435.83
2019-03-16T21:27:12.524Z,99416.33
2019-03-16T21:29:39.940Z,99424.89
2019-03-16T21:32:06.395Z,99415.81
2019-03-16T21:34:33.489Z,99409.42
2019-03-16T21:36:59.878Z,99413.64
2019-03-16T21:39:26.055Z,99408.05
2019-03-16T21:41:52.390Z,99400.30
2019-03-16T21:44:18.844Z,99399.89
2019-03-16T21:46:45.176Z,99397.73
2019-03-16T21:49:11.411Z,99392.50
2019-03-16T21:51:37.767Z,99399.91
2019-03-16T21:54:04.093Z,99392.52
2019-03-16T21:56:30.387Z,99383.87
2019-03-16T21:58:56.602Z,99386.48
2019-03-16T22:01:22.826Z,99381.30
2019-03-16T22:03:48.933Z,99383.83
2019-03-16T22:06:15.156Z,99382.11
2019-03-16T22:08:41.850Z,99393.00
2019-03-16T22:11:08.152Z,99365.66
2019-03-16T22:13:34.273Z,99377.78
2019-03-16T22:16:00.516Z,99351.31
2019-03-16T22:18:26.737Z,99361.30
2019-03-16T22:20:52.916Z,99354.75
2019-03-16T22:23:19.065Z,99351.78
2019-03-16T22:25:45.385Z,99353.05
2019-03-16T22:28:11.596Z,99353.02
2019-03-16T22:30:37.912Z,99348.27
2019-03-16T22:33:04.180Z,99356.05
2019-03-16T22:35:30.424Z,99343.50
2019-03-16T22:37:57.851Z,99337.84
2019-03-16T22:40:23.921Z,99339.58
2019-03-16T22:42:50.171Z,99334.78
2019-03-16T22:45:16.466Z,99339.10
2019-03-16T22:47:42.730Z,99329.17
2019-03-16T22:50:13.488Z,99323.06
2019-03-16T22:52:39.929Z,99323.01
2019-03-16T22:55:06.216Z,99318.77
2019-03-16T22:57:32.923Z,99311.83
2019-03-16T22:59:59.091Z,99320.48
2019-03-16T23:02:25.441Z,99309.22
2019-03-16T23:04:51.515Z,99289.73
2019-03-16T23:07:17.814Z,99291.91
2019-03-16T23:09:43.972Z,99292.34
2019-03-16T23:12:10.088Z,99283.26
2019-03-16T23:14:36.319Z,99280.70
2019-03-16T23:17:02.654Z,99284.14
2019-03-16T23:19:28.858Z,99272.89
2019-03-16T23:21:55.002Z,99272.02
2019-03-16T23:24:21.476Z,99291.97
2019-03-16T23:26:47.799Z,99259.88
2019-03-16T23:29:14.084Z,99263.34
2019-03-16T23:31:40.565Z,99250.34
2019-03-16T23:34:18.738Z,99246.87
2019-03-16T23:36:35.479Z,99262.89
2019-03-16T23:39:03.862Z,99248.59
2019-03-16T23:41:30.345Z,99259.88
2019-03-16T23:43:56.496Z,99256.39
2019-03-16T23:46:22.797Z,99256.39
2019-03-16T23:48:48.940Z,99246.02
2019-03-16T23:51:15.159Z,99254.25
2019-03-16T23:53:41.474Z,99232.97
2019-03-16T23:56:07.673Z,99250.36
2019-03-16T23:58:33.990Z,99223.46
